Terminal Aerodrome Forecast
Issued by NWS Cleveland, OH

Home | Current Version | Previous Version | Graphics & Text | Print | Product List | Glossary On
Versions: 1 2 3 4 5 6 7 8 9 10 11 12 13 14 15 16 17
000
FTUS41 KCLE 151724
TAFYNG
TAF
KYNG 151724Z 1518/1618 26006KT P6SM VCSH BKN045
     FM160200 01002KT P6SM SCT250
     FM160700 00000KT 5SM BR SCT045
     FM160900 00000KT 2SM BR SCT004
     FM161400 00000KT P6SM SCT250
     FM161700 VRB03KT P6SM SCT040=

USA.gov is the U.S. government's official web portal to all federal, state and local government web resources and services.